Terminal Aerodrome Forecast
Issued by NWS Nashville, TN

Home | Current Version | Previous Version | Text Only | Print | Product List | Glossary On
Versions: 1 2 3 4 5 6 7 8 9 10 11 12 13 14 15 16 17 18 19 20
000
FTUS44 KOHX 251126
TAFBNA
TAF
KBNA 251126Z 2512/2612 24004KT P6SM FEW045
      TEMPO 2512/2513 5SM BR
     FM251800 23005KT P6SM SCT040 BKN150
     FM260100 18002KT P6SM SCT250
     FM261000 02001KT 4SM BR SCT250=

USA.gov is the U.S. government's official web portal to all federal, state and local government web resources and services.